Time;durP1;ratioP1;P1;durP2;ratioP2;P2;SDS_P1;SDS_P2;PMS_P1;PMS_P2;Temp;Humidity;BMP_temperature;BMP_pressure;BME280_temperature;BME280_humidity;BME280_pressure;Samples;Min_cycle;Max_cycle;Signal;HPM_P1;HPM_P2
2022/10/01 00:00:56;;;;;;;1.02;0.50;;;21.50;44.40;;;;;;5037134;28;20053;-54
2022/10/01 00:03:24;;;;;;;0.60;0.50;;;21.50;44.50;;;;;;5039850;28;20416;-50
2022/10/01 00:06:04;;;;;;;0.82;0.40;;;21.50;44.60;;;;;;5036160;28;20116;-51
2022/10/01 00:08:32;;;;;;;0.85;0.60;;;21.50;44.60;;;;;;5035261;28;20480;-50
2022/10/01 00:11:00;;;;;;;2.03;0.70;;;21.50;44.70;;;;;;5034776;28;20045;-52
2022/10/01 00:13:29;;;;;;;1.85;0.60;;;21.40;44.70;;;;;;5038788;28;20021;-53
2022/10/01 00:15:55;;;;;;;0.80;0.60;;;21.50;44.80;;;;;;5039198;28;20033;-53
2022/10/01 00:18:21;;;;;;;1.95;0.55;;;21.50;44.90;;;;;;5036144;28;20033;-54
2022/10/01 00:20:47;;;;;;;2.10;0.73;;;21.50;45.00;;;;;;5039376;28;20095;-53
2022/10/01 00:23:14;;;;;;;1.13;0.60;;;21.40;44.90;;;;;;5036664;28;20059;-51
2022/10/01 00:25:40;;;;;;;1.00;0.52;;;21.40;45.00;;;;;;5038545;28;20037;-51
2022/10/01 00:28:06;;;;;;;1.35;0.50;;;21.40;45.00;;;;;;5037811;28;20029;-51
2022/10/01 00:30:33;;;;;;;2.38;0.50;;;21.40;45.10;;;;;;5034342;28;20036;-53
2022/10/01 00:32:58;;;;;;;0.77;0.50;;;21.40;45.10;;;;;;5038340;28;20029;-53
2022/10/01 00:35:25;;;;;;;1.40;0.60;;;21.40;45.20;;;;;;5037966;28;20044;-53
2022/10/01 00:37:51;;;;;;;0.50;0.50;;;21.40;45.20;;;;;;5038413;28;20044;-53
2022/10/01 00:40:21;;;;;;;3.33;0.50;;;21.40;45.30;;;;;;5039784;28;20345;-51
2022/10/01 00:42:47;;;;;;;0.93;0.50;;;21.40;45.30;;;;;;5038472;28;20456;-51
2022/10/01 00:45:15;;;;;;;0.57;0.43;;;21.30;45.30;;;;;;5033406;28;20037;-54
2022/10/01 00:47:50;;;;;;;0.75;0.50;;;21.30;45.30;;;;;;5042962;28;20029;-52
2022/10/01 00:50:25;;;;;;;0.63;0.35;;;21.40;46.00;;;;;;5037795;28;21826;-53
2022/10/01 00:52:54;;;;;;;0.60;0.40;;;21.40;45.40;;;;;;5034049;28;20521;-52
2022/10/01 00:55:40;;;;;;;0.77;0.40;;;21.40;45.50;;;;;;5036580;28;21953;-54
2022/10/01 00:58:09;;;;;;;0.60;0.50;;;21.30;45.50;;;;;;5038046;28;20052;-52
2022/10/01 01:00:36;;;;;;;1.52;0.60;;;21.30;45.60;;;;;;5037575;28;20029;-49
2022/10/01 01:03:04;;;;;;;0.50;0.40;;;21.30;45.60;;;;;;5040680;28;20337;-52
2022/10/01 01:05:29;;;;;;;0.55;0.50;;;21.30;45.60;;;;;;5033210;28;20071;-52
2022/10/01 01:08:01;;;;;;;1.00;0.65;;;21.30;45.70;;;;;;5035616;28;20464;-54
2022/10/01 01:10:50;;;;;;;0.98;0.70;;;21.30;45.70;;;;;;5038403;28;20055;-51
2022/10/01 01:13:48;;;;;;;1.05;0.43;;;21.30;45.70;;;;;;5032912;28;20033;-54
2022/10/01 01:16:21;;;;;;;1.48;0.60;;;21.30;45.80;;;;;;5036924;28;20061;-52
2022/10/01 01:19:12;;;;;;;1.35;0.60;;;21.30;45.90;;;;;;5037888;28;20032;-52
2022/10/01 01:21:43;;;;;;;1.30;0.60;;;21.20;45.90;;;;;;5033612;28;20021;-55
2022/10/01 01:24:17;;;;;;;1.25;0.40;;;21.20;45.90;;;;;;5035023;28;20026;-52
2022/10/01 01:27:12;;;;;;;1.00;0.52;;;21.30;46.00;;;;;;5032719;28;20103;-54
2022/10/01 01:29:56;;;;;;;0.40;0.40;;;21.20;46.00;;;;;;5035155;28;20029;-49
2022/10/01 01:32:28;;;;;;;1.70;0.43;;;21.20;46.10;;;;;;5032033;28;20421;-51
2022/10/01 01:35:01;;;;;;;0.98;0.50;;;21.20;46.20;;;;;;5039740;28;20388;-47
2022/10/01 01:37:32;;;;;;;0.90;0.70;;;21.20;46.30;;;;;;5030140;28;20163;-50
2022/10/01 01:40:02;;;;;;;1.55;0.52;;;21.20;46.30;;;;;;5034962;28;20044;-50
2022/10/01 01:42:36;;;;;;;1.52;0.60;;;21.20;46.40;;;;;;5036463;28;20033;-51
2022/10/01 01:45:07;;;;;;;0.90;0.50;;;21.20;46.40;;;;;;5036220;28;20036;-54
2022/10/01 01:47:34;;;;;;;0.75;0.57;;;21.20;46.40;;;;;;5034836;28;20444;-49
2022/10/01 01:50:01;;;;;;;0.82;0.63;;;21.20;46.40;;;;;;5032176;28;20098;-51
2022/10/01 01:52:28;;;;;;;1.30;0.43;;;21.20;46.40;;;;;;5036408;28;20045;-52
2022/10/01 01:54:55;;;;;;;1.25;0.50;;;21.20;46.40;;;;;;5032775;28;20119;-49
2022/10/01 01:57:22;;;;;;;1.33;0.57;;;21.10;46.30;;;;;;5035690;28;20025;-51
2022/10/01 01:59:48;;;;;;;1.00;0.50;;;21.20;46.40;;;;;;5032722;28;20075;-53
2022/10/01 02:02:25;;;;;;;0.47;0.47;;;21.20;46.40;;;;;;5037076;28;20029;-50
2022/10/01 02:05:02;;;;;;;0.60;0.38;;;21.20;46.50;;;;;;5033359;28;20120;-49
2022/10/01 02:07:56;;;;;;;0.95;0.43;;;21.20;46.60;;;;;;5032596;28;20064;-52
2022/10/01 02:10:45;;;;;;;1.55;0.40;;;21.10;46.60;;;;;;5038102;28;20377;-51
2022/10/01 02:13:28;;;;;;;0.55;0.30;;;21.10;46.60;;;;;;5034236;28;20037;-53
2022/10/01 02:16:17;;;;;;;1.05;0.47;;;21.10;46.70;;;;;;5031520;28;20025;-51
2022/10/01 02:19:05;;;;;;;0.95;0.30;;;21.10;46.70;;;;;;5033115;28;20033;-51
2022/10/01 02:21:39;;;;;;;0.60;0.47;;;21.10;46.70;;;;;;5039230;28;20037;-49
2022/10/01 02:24:21;;;;;;;0.40;0.40;;;21.10;46.80;;;;;;5039249;28;20448;-50
2022/10/01 02:26:49;;;;;;;0.50;0.40;;;21.10;46.80;;;;;;5038059;28;20041;-52
2022/10/01 02:29:20;;;;;;;1.40;0.60;;;21.10;46.90;;;;;;5035453;28;20403;-52
2022/10/01 02:31:48;;;;;;;0.70;0.40;;;21.10;46.90;;;;;;5032348;28;20026;-50
2022/10/01 02:34:17;;;;;;;0.60;0.40;;;21.10;47.00;;;;;;5031988;28;20037;-52
2022/10/01 02:36:44;;;;;;;0.80;0.47;;;21.10;47.00;;;;;;5031350;28;20060;-51
2022/10/01 02:39:13;;;;;;;0.75;0.50;;;21.10;47.00;;;;;;5034494;28;20473;-50
2022/10/01 02:41:42;;;;;;;0.52;0.30;;;21.10;47.10;;;;;;5033801;28;20075;-50
2022/10/01 02:44:20;;;;;;;0.35;0.28;;;21.10;47.10;;;;;;5038822;28;20368;-50
2022/10/01 02:47:25;;;;;;;0.70;0.30;;;21.10;47.10;;;;;;5037765;28;20207;-50
2022/10/01 02:49:51;;;;;;;0.95;0.40;;;21.10;47.20;;;;;;5036430;28;20037;-50
2022/10/01 02:52:24;;;;;;;0.60;0.40;;;21.00;47.10;;;;;;5035020;28;20087;-52
2022/10/01 02:54:55;;;;;;;0.45;0.40;;;21.00;47.20;;;;;;5037588;28;20025;-52
2022/10/01 02:57:22;;;;;;;0.80;0.40;;;21.00;47.20;;;;;;5034314;28;20036;-53
2022/10/01 02:59:50;;;;;;;0.60;0.30;;;21.00;47.30;;;;;;5036801;28;20072;-52
2022/10/01 03:02:16;;;;;;;0.43;0.30;;;21.00;47.30;;;;;;5033393;28;20041;-50
2022/10/01 03:04:42;;;;;;;0.47;0.30;;;21.00;47.40;;;;;;5031408;28;21398;-52
2022/10/01 03:07:08;;;;;;;0.60;0.30;;;21.00;47.40;;;;;;5032675;28;20041;-52
2022/10/01 03:09:35;;;;;;;1.30;0.30;;;21.00;47.40;;;;;;5032559;28;20036;-47
2022/10/01 03:12:01;;;;;;;0.20;0.20;;;21.00;47.50;;;;;;5035403;28;20051;-51
2022/10/01 03:14:28;;;;;;;0.30;0.28;;;21.00;47.50;;;;;;5036444;28;20068;-52
2022/10/01 03:16:53;;;;;;;3.03;0.40;;;21.00;47.60;;;;;;5034486;28;20033;-55
2022/10/01 03:19:20;;;;;;;0.30;0.20;;;21.00;47.50;;;;;;5033508;28;20022;-55
2022/10/01 03:21:46;;;;;;;0.75;0.32;;;21.00;47.60;;;;;;5037878;28;20021;-54
2022/10/01 03:24:13;;;;;;;0.52;0.32;;;21.00;47.60;;;;;;5035023;28;20100;-54
2022/10/01 03:26:39;;;;;;;0.30;0.28;;;21.00;47.70;;;;;;5034771;28;20437;-53
2022/10/01 03:29:05;;;;;;;0.30;0.28;;;21.00;47.70;;;;;;5030366;28;20087;-48
2022/10/01 03:31:31;;;;;;;0.80;0.20;;;21.00;47.70;;;;;;5033137;28;20033;-50
2022/10/01 03:33:59;;;;;;;0.38;0.20;;;21.00;47.80;;;;;;5036299;28;20026;-49
2022/10/01 03:36:26;;;;;;;0.50;0.28;;;21.00;47.80;;;;;;5036665;28;20164;-50
2022/10/01 03:38:52;;;;;;;1.05;0.20;;;21.00;47.80;;;;;;5034416;28;20025;-53
2022/10/01 03:41:17;;;;;;;0.50;0.20;;;20.90;47.80;;;;;;5035710;28;20025;-52
2022/10/01 03:43:43;;;;;;;0.30;0.20;;;21.00;47.90;;;;;;5035258;28;20333;-49
2022/10/01 03:46:10;;;;;;;0.20;0.20;;;20.90;47.90;;;;;;5032452;28;20461;-52
2022/10/01 03:48:36;;;;;;;0.47;0.20;;;20.90;47.90;;;;;;5038188;28;20783;-50
2022/10/01 03:51:03;;;;;;;0.47;0.32;;;20.90;47.90;;;;;;5035986;28;20044;-50
2022/10/01 03:53:32;;;;;;;0.30;0.20;;;20.90;48.60;;;;;;5035369;28;20021;-49
2022/10/01 03:55:59;;;;;;;2.42;0.35;;;20.90;48.00;;;;;;5031548;28;20308;-53
2022/10/01 03:58:25;;;;;;;0.32;0.20;;;20.90;48.10;;;;;;5030666;28;20036;-52
2022/10/01 04:00:54;;;;;;;0.90;0.10;;;20.90;48.10;;;;;;5031476;28;20028;-53
2022/10/01 04:03:20;;;;;;;0.75;0.30;;;20.90;48.10;;;;;;5040211;28;20116;-52
2022/10/01 04:05:46;;;;;;;0.60;0.30;;;20.90;48.20;;;;;;5039250;28;20053;-53
2022/10/01 04:08:12;;;;;;;0.50;0.30;;;20.90;48.20;;;;;;5035599;28;20186;-52
2022/10/01 04:10:38;;;;;;;0.10;0.10;;;20.90;48.20;;;;;;5036484;28;20071;-49
2022/10/01 04:13:05;;;;;;;0.17;0.15;;;20.90;48.30;;;;;;5034292;28;20437;-52
2022/10/01 04:15:31;;;;;;;0.17;0.17;;;20.90;48.30;;;;;;5036806;28;20116;-51
2022/10/01 04:17:58;;;;;;;0.65;0.30;;;20.90;48.40;;;;;;5040292;28;20114;-51
2022/10/01 04:20:24;;;;;;;0.20;0.20;;;20.90;48.50;;;;;;5035803;28;20033;-52
2022/10/01 04:22:50;;;;;;;0.10;0.10;;;20.90;48.40;;;;;;5038992;28;20338;-52
2022/10/01 04:25:16;;;;;;;0.15;0.15;;;20.90;48.50;;;;;;5039924;28;20053;-52
2022/10/01 04:27:57;;;;;;;0.13;0.13;;;20.90;48.50;;;;;;5034250;28;20117;-51
2022/10/01 04:30:25;;;;;;;0.43;0.30;;;20.90;48.60;;;;;;5036106;28;20095;-51
2022/10/01 04:32:51;;;;;;;0.50;0.20;;;20.90;48.60;;;;;;5036731;28;20412;-52
2022/10/01 04:35:17;;;;;;;0.40;0.20;;;20.90;48.60;;;;;;5039132;28;20026;-51
2022/10/01 04:37:43;;;;;;;0.28;0.20;;;20.90;48.70;;;;;;5035574;28;20052;-53
2022/10/01 04:40:09;;;;;;;0.73;0.30;;;20.90;48.70;;;;;;5034657;28;20045;-51
2022/10/01 04:42:39;;;;;;;0.30;0.20;;;20.90;48.80;;;;;;5031639;28;20033;-52
2022/10/01 04:45:06;;;;;;;0.45;0.20;;;20.90;48.80;;;;;;5032102;28;20491;-48
2022/10/01 04:47:32;;;;;;;0.20;0.20;;;20.90;48.80;;;;;;5040240;28;20500;-50
2022/10/01 04:49:58;;;;;;;0.10;0.10;;;20.90;48.90;;;;;;5034387;28;20156;-53
2022/10/01 04:52:24;;;;;;;0.43;0.13;;;20.90;48.90;;;;;;5036970;28;20108;-54
2022/10/01 04:54:51;;;;;;;0.20;0.20;;;20.80;48.90;;;;;;5034547;28;20052;-50
2022/10/01 04:57:20;;;;;;;0.13;0.10;;;20.80;48.90;;;;;;5040893;28;20036;-53
2022/10/01 04:59:47;;;;;;;0.10;0.10;;;20.80;49.00;;;;;;5033122;28;20029;-54
2022/10/01 05:02:13;;;;;;;0.57;0.20;;;20.80;49.00;;;;;;5034044;28;20041;-52
2022/10/01 05:04:39;;;;;;;0.30;0.20;;;20.80;49.10;;;;;;5035558;28;20021;-52
2022/10/01 05:07:05;;;;;;;0.40;0.20;;;20.80;49.20;;;;;;5034239;28;20476;-52
2022/10/01 05:09:31;;;;;;;0.22;0.20;;;20.80;49.20;;;;;;5032550;28;20030;-53
2022/10/01 05:11:56;;;;;;;0.65;0.20;;;20.80;49.20;;;;;;5034292;28;20485;-51
2022/10/01 05:14:23;;;;;;;5.10;0.30;;;20.80;49.30;;;;;;5035532;28;20025;-52
2022/10/01 05:16:49;;;;;;;0.55;0.17;;;20.80;49.40;;;;;;5035772;28;20040;-49
2022/10/01 05:19:15;;;;;;;0.52;0.20;;;20.80;49.40;;;;;;5036330;28;20037;-57
2022/10/01 05:21:42;;;;;;;1.35;0.20;;;20.80;49.50;;;;;;5035669;28;20314;-55
2022/10/01 05:24:08;;;;;;;0.30;0.20;;;20.80;49.50;;;;;;5038982;28;20043;-53
2022/10/01 05:26:35;;;;;;;0.32;0.10;;;20.80;49.50;;;;;;5037917;28;20369;-54
2022/10/01 05:29:01;;;;;;;0.40;0.15;;;20.80;49.60;;;;;;5033514;28;20464;-54
2022/10/01 05:31:27;;;;;;;0.38;0.30;;;20.80;49.60;;;;;;5034799;28;20064;-50
2022/10/01 05:33:53;;;;;;;0.10;0.10;;;20.80;49.60;;;;;;5036021;28;20048;-55
2022/10/01 05:36:19;;;;;;;0.40;0.20;;;20.80;49.70;;;;;;5032164;28;20021;-50
2022/10/01 05:38:47;;;;;;;0.28;0.00;;;20.80;49.70;;;;;;5033724;28;20414;-52
2022/10/01 05:41:13;;;;;;;0.50;0.10;;;20.80;49.70;;;;;;5036365;28;20071;-50
2022/10/01 05:43:39;;;;;;;0.77;0.20;;;20.80;49.80;;;;;;5033585;28;20033;-52
2022/10/01 05:46:04;;;;;;;0.10;0.10;;;20.80;49.80;;;;;;5037560;28;20052;-52
2022/10/01 05:48:36;;;;;;;0.45;0.20;;;20.80;49.90;;;;;;5033145;28;20113;-54
2022/10/01 05:51:05;;;;;;;0.20;0.10;;;20.80;49.90;;;;;;5036315;28;20102;-50
2022/10/01 05:53:31;;;;;;;0.20;0.20;;;20.80;49.90;;;;;;5036481;28;20026;-50
2022/10/01 05:56:03;;;;;;;0.38;0.20;;;20.80;50.00;;;;;;5037683;28;20420;-52
2022/10/01 05:58:29;;;;;;;1.45;0.20;;;20.80;50.00;;;;;;5039699;28;20317;-57
2022/10/01 06:00:55;;;;;;;0.20;0.10;;;20.80;50.10;;;;;;5033010;28;20091;-54
2022/10/01 06:03:22;;;;;;;0.30;0.10;;;20.80;50.10;;;;;;5039269;28;20037;-52
2022/10/01 06:05:50;;;;;;;0.25;0.20;;;20.70;50.10;;;;;;5034447;28;20037;-50
2022/10/01 06:08:16;;;;;;;0.47;0.13;;;20.80;50.20;;;;;;5033135;28;21760;-49
2022/10/01 06:10:42;;;;;;;0.20;0.10;;;20.80;50.70;;;;;;5036369;28;20071;-48
2022/10/01 06:13:08;;;;;;;0.65;0.20;;;20.80;50.30;;;;;;5033914;28;20033;-52
2022/10/01 06:15:36;;;;;;;0.20;0.20;;;20.70;50.30;;;;;;5035932;28;20349;-53
2022/10/01 06:18:03;;;;;;;0.73;0.25;;;20.80;50.30;;;;;;5037668;28;20022;-53
2022/10/01 06:20:30;;;;;;;0.88;0.20;;;20.80;50.40;;;;;;5035871;28;20453;-49
2022/10/01 06:22:56;;;;;;;0.10;0.10;;;20.80;50.40;;;;;;5023682;28;20021;-48
2022/10/01 06:25:23;;;;;;;0.60;0.20;;;20.80;50.50;;;;;;5034870;28;20029;-48
2022/10/01 06:27:55;;;;;;;0.52;0.20;;;20.80;50.50;;;;;;5031667;28;20044;-50
2022/10/01 06:30:21;;;;;;;1.10;0.20;;;20.80;50.60;;;;;;5037925;28;20064;-51
2022/10/01 06:32:47;;;;;;;0.30;0.10;;;20.70;50.60;;;;;;5038288;28;20033;-51
2022/10/01 06:35:13;;;;;;;0.90;0.25;;;20.80;50.70;;;;;;5032714;28;20040;-49
2022/10/01 06:37:39;;;;;;;0.32;0.20;;;20.70;50.70;;;;;;5030677;28;20508;-53
2022/10/01 06:40:06;;;;;;;0.57;0.20;;;20.80;50.80;;;;;;5035436;28;20148;-50
2022/10/01 06:42:32;;;;;;;1.05;0.20;;;20.70;50.80;;;;;;5035614;28;20029;-53
2022/10/01 06:44:58;;;;;;;0.57;0.15;;;20.70;50.80;;;;;;5031698;28;20402;-50
2022/10/01 06:47:23;;;;;;;0.40;0.20;;;20.70;50.90;;;;;;5032896;28;20064;-51
2022/10/01 06:49:49;;;;;;;0.65;0.30;;;20.70;50.90;;;;;;5032355;28;20025;-53
2022/10/01 06:55:01;;;;;;;1.17;0.40;;;20.80;51.10;;;;;;5030310;28;20029;-48
2022/10/01 06:57:28;;;;;;;1.30;0.32;;;20.80;51.10;;;;;;5037279;28;20129;-51
2022/10/01 06:59:53;;;;;;;0.82;0.40;;;20.80;51.20;;;;;;5032259;28;20021;-52
2022/10/01 07:02:27;;;;;;;0.50;0.40;;;20.80;51.30;;;;;;5038148;28;20345;-48
2022/10/01 07:04:57;;;;;;;1.33;0.40;;;20.80;51.30;;;;;;5038186;28;20355;-49
2022/10/01 07:07:31;;;;;;;0.85;0.40;;;20.80;51.40;;;;;;5034672;28;20415;-52
2022/10/01 07:09:58;;;;;;;3.50;0.60;;;20.80;51.40;;;;;;5032100;28;20129;-54
2022/10/01 07:12:25;;;;;;;1.80;0.63;;;20.80;51.40;;;;;;5039946;28;20040;-53
2022/10/01 07:14:51;;;;;;;1.52;0.50;;;20.80;51.50;;;;;;5043080;28;20029;-52
2022/10/01 07:17:17;;;;;;;2.28;0.60;;;20.80;51.60;;;;;;5053293;28;20354;-47
2022/10/01 07:19:43;;;;;;;1.30;0.40;;;20.80;51.60;;;;;;5029131;28;20021;-51
2022/10/01 07:22:09;;;;;;;2.00;0.70;;;20.80;51.70;;;;;;5046357;28;20024;-54
2022/10/01 07:24:35;;;;;;;1.63;0.68;;;20.80;51.70;;;;;;5047725;28;20525;-53
2022/10/01 07:27:01;;;;;;;1.70;0.60;;;20.80;51.80;;;;;;5044470;28;20080;-54
2022/10/01 07:29:28;;;;;;;1.35;0.50;;;20.80;51.90;;;;;;5045847;28;20029;-54
2022/10/01 07:31:58;;;;;;;3.65;0.68;;;20.80;52.00;;;;;;5044288;28;20025;-54
2022/10/01 07:34:29;;;;;;;2.88;0.80;;;20.90;52.10;;;;;;5047460;28;20033;-50
2022/10/01 07:36:56;;;;;;;2.80;0.52;;;20.90;52.10;;;;;;5039681;28;20338;-52
2022/10/01 07:39:22;;;;;;;2.50;0.88;;;20.90;52.20;;;;;;5044254;28;20029;-49
2022/10/01 07:41:50;;;;;;;3.03;0.90;;;20.90;52.20;;;;;;5047168;28;20444;-49
2022/10/01 07:44:16;;;;;;;4.15;0.70;;;20.80;52.20;;;;;;5049856;28;20032;-48
2022/10/01 07:46:42;;;;;;;2.65;0.90;;;20.90;52.40;;;;;;5051152;28;20043;-50
2022/10/01 07:49:09;;;;;;;3.17;1.13;;;20.90;52.40;;;;;;5038254;28;20029;-48
2022/10/01 07:51:35;;;;;;;3.83;1.38;;;20.90;52.50;;;;;;5038626;28;20037;-51
2022/10/01 07:54:03;;;;;;;3.60;1.10;;;20.90;52.50;;;;;;5037063;28;20029;-50
2022/10/01 07:56:29;;;;;;;2.22;1.10;;;20.90;52.60;;;;;;5039164;28;20029;-51
2022/10/01 07:58:56;;;;;;;1.92;0.90;;;20.90;52.60;;;;;;5048141;28;20094;-48
2022/10/01 08:01:23;;;;;;;2.60;0.77;;;20.90;52.70;;;;;;5049509;28;20025;-49
2022/10/01 08:03:50;;;;;;;2.53;0.85;;;20.90;52.70;;;;;;5050572;28;20098;-50
2022/10/01 08:06:17;;;;;;;2.45;1.02;;;20.90;52.80;;;;;;5049958;28;20045;-52
2022/10/01 08:08:43;;;;;;;3.33;1.08;;;20.90;52.80;;;;;;5048275;28;20096;-52
2022/10/01 08:11:12;;;;;;;2.65;1.10;;;20.90;52.80;;;;;;5049285;28;20052;-49
2022/10/01 08:13:38;;;;;;;3.97;1.48;;;20.90;53.50;;;;;;5044344;28;20115;-50
2022/10/01 08:16:06;;;;;;;5.10;1.35;;;20.90;53.00;;;;;;5050835;28;20175;-49
2022/10/01 08:18:32;;;;;;;2.78;1.10;;;20.90;53.00;;;;;;5045445;28;20060;-51
2022/10/01 08:21:00;;;;;;;3.53;1.08;;;21.00;53.10;;;;;;5049700;28;20029;-47
2022/10/01 08:23:28;;;;;;;2.60;1.13;;;21.00;53.10;;;;;;5048795;28;20021;-48
2022/10/01 08:25:59;;;;;;;4.15;1.10;;;21.00;53.10;;;;;;5050246;28;20036;-49
2022/10/01 08:28:26;;;;;;;2.08;0.90;;;21.00;53.10;;;;;;5045659;28;20033;-51
2022/10/01 08:30:51;;;;;;;3.03;0.98;;;21.00;53.10;;;;;;5050977;28;20040;-48
2022/10/01 08:33:19;;;;;;;3.85;1.30;;;21.00;53.30;;;;;;5040204;28;20021;-52
2022/10/01 08:35:45;;;;;;;4.57;1.52;;;21.00;53.50;;;;;;5043155;28;20120;-55
2022/10/01 08:38:12;;;;;;;3.38;1.55;;;21.00;53.50;;;;;;5036517;28;20424;-46
2022/10/01 08:40:47;;;;;;;4.22;1.52;;;21.10;53.60;;;;;;5045238;28;20337;-54
2022/10/01 08:43:21;;;;;;;5.93;1.50;;;21.10;53.60;;;;;;5048964;28;20336;-48
2022/10/01 08:45:51;;;;;;;4.18;2.00;;;21.10;53.60;;;;;;5042210;28;20406;-50
2022/10/01 08:48:38;;;;;;;3.55;1.58;;;21.10;53.60;;;;;;5045324;28;20567;-51
2022/10/01 08:51:18;;;;;;;5.78;1.75;;;21.10;53.60;;;;;;5037027;28;20083;-49
2022/10/01 08:53:52;;;;;;;4.78;1.23;;;21.10;53.70;;;;;;5050933;28;20079;-51
2022/10/01 08:56:38;;;;;;;4.93;1.45;;;21.10;53.70;;;;;;5056301;28;20444;-50
2022/10/01 08:59:31;;;;;;;4.25;1.30;;;21.10;53.70;;;;;;5053530;28;20040;-51
2022/10/01 09:01:58;;;;;;;2.92;1.20;;;21.10;53.70;;;;;;5047113;28;20029;-53
2022/10/01 09:04:27;;;;;;;2.85;1.38;;;21.10;53.80;;;;;;5045950;28;20156;-55
2022/10/01 09:07:41;;;;;;;4.15;1.30;;;21.10;53.80;;;;;;5044660;28;20041;-52
2022/10/01 09:10:24;;;;;;;4.68;1.38;;;21.10;53.80;;;;;;5043979;28;20124;-48
2022/10/01 09:12:50;;;;;;;2.97;1.17;;;21.10;53.80;;;;;;5042178;28;20030;-49
2022/10/01 09:15:39;;;;;;;2.72;1.00;;;21.10;53.80;;;;;;5044112;28;20029;-50
2022/10/01 09:18:22;;;;;;;3.55;1.30;;;21.10;53.80;;;;;;5042626;28;20048;-47
2022/10/01 09:21:31;;;;;;;2.85;1.15;;;21.10;53.80;;;;;;5046349;28;20041;-51
2022/10/01 09:24:03;;;;;;;4.85;1.10;;;21.10;53.80;;;;;;5047425;28;20037;-48
2022/10/01 09:26:30;;;;;;;2.63;1.10;;;21.10;53.80;;;;;;5044292;28;20037;-54
2022/10/01 09:28:59;;;;;;;2.97;0.90;;;21.10;53.90;;;;;;5048084;28;20033;-54
2022/10/01 09:31:44;;;;;;;2.65;1.40;;;21.10;53.90;;;;;;5045461;28;20109;-53
2022/10/01 09:34:14;;;;;;;3.08;1.42;;;21.10;53.90;;;;;;5048212;28;20020;-55
2022/10/01 09:37:04;;;;;;;2.63;1.10;;;21.10;53.90;;;;;;5044954;28;20345;-51
2022/10/01 09:39:39;;;;;;;2.95;1.08;;;21.10;54.00;;;;;;5047227;28;20440;-47
2022/10/01 09:42:05;;;;;;;2.78;1.05;;;21.10;54.00;;;;;;5049152;28;20118;-50
2022/10/01 09:44:32;;;;;;;3.50;1.15;;;21.20;54.20;;;;;;5043966;28;20476;-55
2022/10/01 09:46:58;;;;;;;2.05;0.75;;;21.10;54.20;;;;;;5044220;28;20087;-52
2022/10/01 09:49:35;;;;;;;3.20;1.20;;;21.20;54.30;;;;;;5035260;28;20021;-54
2022/10/01 09:52:09;;;;;;;3.95;1.00;;;21.20;54.30;;;;;;5035757;28;20058;-52
2022/10/01 09:54:54;;;;;;;3.30;1.00;;;21.20;54.20;;;;;;5016054;28;20041;-52
2022/10/01 09:57:32;;;;;;;1.77;0.60;;;21.20;54.20;;;;;;5016182;28;20100;-50
2022/10/01 10:00:12;;;;;;;2.22;0.95;;;21.20;54.20;;;;;;5015245;28;20076;-51
2022/10/01 10:02:41;;;;;;;1.50;0.77;;;21.30;54.30;;;;;;5041471;28;20367;-51
2022/10/01 10:05:09;;;;;;;2.85;0.95;;;21.30;54.30;;;;;;5037192;28;20029;-49
2022/10/01 10:07:38;;;;;;;2.17;0.77;;;21.30;54.30;;;;;;5035544;28;20369;-52
2022/10/01 10:10:22;;;;;;;2.33;0.73;;;21.40;54.30;;;;;;5038485;28;20050;-49
2022/10/01 10:13:16;;;;;;;2.83;0.90;;;21.40;54.20;;;;;;5035636;28;20075;-49
2022/10/01 10:15:58;;;;;;;1.50;0.70;;;21.50;54.20;;;;;;5035733;28;20053;-54
2022/10/01 10:18:32;;;;;;;2.05;0.98;;;21.50;54.20;;;;;;5037308;28;20044;-48
2022/10/01 10:21:03;;;;;;;2.78;0.82;;;21.50;54.20;;;;;;5031300;28;20648;-53
2022/10/01 10:23:30;;;;;;;2.90;1.08;;;21.60;54.30;;;;;;5044965;28;20317;-66
2022/10/01 10:26:01;;;;;;;2.55;0.82;;;21.60;54.30;;;;;;5046415;28;20029;-55
2022/10/01 10:28:39;;;;;;;4.78;0.90;;;21.60;54.40;;;;;;5047477;28;20021;-53
2022/10/01 10:31:19;;;;;;;2.80;1.48;;;21.60;54.50;;;;;;5045245;28;20117;-54
2022/10/01 10:34:06;;;;;;;4.65;1.45;;;21.70;54.70;;;;;;5045464;28;20068;-53
2022/10/01 10:36:34;;;;;;;3.45;1.40;;;21.70;54.80;;;;;;5044265;28;20033;-54
2022/10/01 10:39:02;;;;;;;6.43;1.25;;;21.80;55.00;;;;;;5048491;28;20475;-48
2022/10/01 10:41:29;;;;;;;6.45;1.60;;;21.80;55.10;;;;;;5042650;28;20033;-53
2022/10/01 10:44:06;;;;;;;5.45;1.10;;;21.80;55.20;;;;;;5048539;28;20028;-50
2022/10/01 10:46:35;;;;;;;6.18;1.38;;;21.80;55.20;;;;;;5042401;28;20037;-53
2022/10/01 10:49:25;;;;;;;3.60;1.30;;;21.90;55.30;;;;;;5047000;28;20334;-50
2022/10/01 10:51:53;;;;;;;7.55;1.42;;;21.90;55.30;;;;;;5043553;28;20037;-50
2022/10/01 10:54:23;;;;;;;4.72;1.45;;;21.90;55.30;;;;;;5046041;28;20519;-53
2022/10/01 10:57:27;;;;;;;7.00;1.25;;;22.00;55.40;;;;;;5040425;28;20033;-54
2022/10/01 11:00:03;;;;;;;3.13;1.25;;;22.00;55.30;;;;;;5041759;28;20559;-51
2022/10/01 11:02:30;;;;;;;5.05;1.33;;;22.00;55.40;;;;;;5046186;28;20343;-52
2022/10/01 11:05:00;;;;;;;5.13;1.17;;;22.00;55.30;;;;;;5043932;28;20068;-52
2022/10/01 11:07:27;;;;;;;3.65;1.23;;;22.00;55.30;;;;;;5045562;28;20029;-49
2022/10/01 11:10:14;;;;;;;7.45;1.20;;;22.00;55.20;;;;;;5044650;28;20033;-51
2022/10/01 11:12:55;;;;;;;3.97;1.38;;;22.00;55.20;;;;;;5045775;28;20048;-50
2022/10/01 11:15:49;;;;;;;4.45;1.45;;;22.00;55.00;;;;;;5046498;28;20071;-51
2022/10/01 11:18:20;;;;;;;5.70;1.63;;;22.00;54.80;;;;;;5042561;28;20044;-51
2022/10/01 11:21:14;;;;;;;3.33;1.10;;;22.00;54.60;;;;;;5042212;28;20127;-50
2022/10/01 11:23:54;;;;;;;3.22;1.20;;;22.00;54.40;;;;;;5051072;28;20067;-51
2022/10/01 11:26:32;;;;;;;3.15;1.13;;;22.00;54.20;;;;;;5043673;28;20041;-56
2022/10/01 11:29:21;;;;;;;5.60;1.70;;;22.00;54.00;;;;;;5049083;28;20029;-55
2022/10/01 11:32:02;;;;;;;7.07;1.30;;;22.00;54.10;;;;;;5041242;28;20041;-56
2022/10/01 11:34:36;;;;;;;8.38;1.50;;;22.00;54.50;;;;;;5045985;28;20026;-56
2022/10/01 11:37:23;;;;;;;5.85;1.50;;;22.10;54.70;;;;;;5034812;28;20465;-56
2022/10/01 11:39:54;;;;;;;4.35;1.50;;;22.20;54.60;;;;;;5039721;28;20100;-59
2022/10/01 11:42:30;;;;;;;3.92;1.27;;;22.30;54.30;;;;;;5048443;28;20025;-57
2022/10/01 11:45:09;;;;;;;4.20;0.98;;;22.30;54.00;;;;;;5049036;28;20115;-57
2022/10/01 11:47:43;;;;;;;2.47;0.98;;;22.40;53.80;;;;;;5038321;28;20345;-58
2022/10/01 11:50:17;;;;;;;;;;;22.60;53.50;;;;;;5040073;28;20052;-56
2022/10/01 11:52:51;;;;;;;4.82;1.33;;;22.70;53.30;;;;;;5038358;28;19999;-53
2022/10/01 11:58:51;;;;;;;2.88;1.20;;;22.90;52.40;;;;;;5046467;28;20037;-52
2022/10/01 12:01:23;;;;;;;4.15;0.98;;;23.10;52.00;;;;;;5038723;28;20029;-56
2022/10/01 12:03:51;;;;;;;3.00;0.90;;;23.20;51.50;;;;;;5037566;28;20075;-54
2022/10/01 12:06:49;;;;;;;2.92;1.00;;;23.30;51.10;;;;;;5047190;28;20223;-52
2022/10/01 12:09:23;;;;;;;3.05;1.02;;;23.30;50.70;;;;;;5045540;28;20091;-54
2022/10/01 12:12:04;;;;;;;4.40;1.13;;;23.40;50.50;;;;;;5035098;28;20504;-55
2022/10/01 12:14:51;;;;;;;3.72;1.10;;;23.50;50.30;;;;;;5045983;28;20453;-54
2022/10/01 12:17:25;;;;;;;2.90;0.90;;;23.60;50.10;;;;;;5044181;28;20044;-51
2022/10/01 12:19:53;;;;;;;;;;;23.70;49.80;;;;;;5037630;28;20070;-52
2022/10/01 12:22:34;;;;;;;3.22;1.10;;;23.70;49.60;;;;;;5043401;28;20298;-54
2022/10/01 12:25:00;;;;;;;2.60;0.90;;;23.80;49.30;;;;;;5038186;28;20045;-55
2022/10/01 12:27:41;;;;;;;2.25;0.82;;;23.80;49.00;;;;;;5038063;28;20037;-55
2022/10/01 12:30:20;;;;;;;2.95;0.98;;;23.90;48.80;;;;;;5047522;28;20037;-54
2022/10/01 12:33:18;;;;;;;2.15;0.80;;;24.00;48.70;;;;;;5044826;28;20034;-55
2022/10/01 12:35:53;;;;;;;2.75;1.10;;;24.10;48.60;;;;;;5045161;28;20033;-58
2022/10/01 12:38:53;;;;;;;1.92;1.00;;;24.10;48.50;;;;;;5041599;28;20031;-52
2022/10/01 12:41:56;;;;;;;3.13;0.98;;;24.20;48.40;;;;;;5010483;28;20045;-55
2022/10/01 12:44:59;;;;;;;3.65;1.30;;;24.20;48.30;;;;;;5043074;28;20128;-53
2022/10/01 12:47:34;;;;;;;3.17;1.00;;;24.30;48.00;;;;;;5043074;28;20345;-57
2022/10/01 12:50:24;;;;;;;3.60;1.42;;;24.30;48.00;;;;;;5040560;28;20377;-55
2022/10/01 12:53:05;;;;;;;3.70;1.00;;;24.40;47.80;;;;;;5037028;28;20021;-58
2022/10/01 12:55:33;;;;;;;4.47;1.00;;;24.40;47.70;;;;;;5040898;28;20032;-57
2022/10/01 12:58:16;;;;;;;5.47;0.80;;;24.40;47.50;;;;;;5037342;28;20025;-55
2022/10/01 13:00:57;;;;;;;2.15;0.63;;;24.50;47.50;;;;;;5040906;28;20729;-57
2022/10/01 13:04:08;;;;;;;2.40;0.70;;;24.50;47.40;;;;;;5038070;28;20040;-46
2022/10/01 13:07:19;;;;;;;1.73;0.70;;;24.60;47.40;;;;;;5040756;28;20056;-50
2022/10/01 13:10:04;;;;;;;4.57;1.05;;;24.60;47.30;;;;;;5039927;28;20037;-46
2022/10/01 13:12:48;;;;;;;1.83;0.90;;;24.70;47.30;;;;;;5038731;28;20369;-49
2022/10/01 13:15:21;;;;;;;3.78;0.70;;;24.60;47.20;;;;;;5033283;28;20036;-45
2022/10/01 13:18:01;;;;;;;5.28;0.90;;;24.60;47.20;;;;;;5043390;28;20083;-47
2022/10/01 13:20:51;;;;;;;4.55;0.98;;;24.50;47.10;;;;;;5033602;28;20056;-48